createdAt,value
2022-11-25T00:01:30.496Z,28.85
2022-11-25T00:04:00.524Z,27.75
2022-11-25T00:06:31.794Z,26.90
2022-11-25T00:09:02.202Z,28.20
2022-11-25T00:11:30.622Z,28.73
2022-11-25T00:13:59.393Z,27.42
2022-11-25T00:16:27.940Z,27.35
2022-11-25T00:18:58.117Z,28.10
2022-11-25T00:21:28.972Z,28.25
2022-11-25T00:24:10.900Z,28.45
2022-11-25T00:26:39.690Z,28.38
2022-11-25T00:29:11.046Z,26.13
2022-11-25T00:31:40.597Z,28.83
2022-11-25T00:34:12.289Z,27.48
2022-11-25T00:36:40.645Z,28.63
2022-11-25T00:39:12.629Z,27.45
2022-11-25T00:41:59.174Z,28.08
2022-11-25T00:44:40.954Z,26.10
2022-11-25T00:47:11.652Z,28.35
2022-11-25T00:49:41.782Z,28.60
2022-11-25T00:52:11.074Z,29.48
2022-11-25T00:54:41.114Z,28.20
2022-11-25T00:57:09.433Z,28.85
2022-11-25T00:59:37.743Z,29.55
2022-11-25T01:02:06.286Z,28.17
2022-11-25T01:04:35.552Z,27.95
2022-11-25T01:07:04.355Z,28.52
2022-11-25T01:09:33.017Z,29.90
2022-11-25T01:12:02.854Z,29.23
2022-11-25T01:14:31.205Z,29.67
2022-11-25T01:16:59.528Z,30.45
2022-11-25T01:19:28.046Z,29.95
2022-11-25T01:21:56.340Z,30.60
2022-11-25T01:24:26.341Z,30.55
2022-11-25T01:26:56.276Z,31.05
2022-11-25T01:29:26.098Z,32.00
2022-11-25T01:31:56.347Z,28.58
2022-11-25T01:34:26.567Z,31.45
2022-11-25T01:36:54.862Z,28.80
2022-11-25T01:39:30.400Z,30.58
2022-11-25T01:42:00.776Z,28.85
2022-11-25T01:44:31.684Z,29.42
2022-11-25T01:47:04.624Z,29.45
2022-11-25T01:49:39.518Z,29.15
2022-11-25T01:52:14.486Z,29.33
2022-11-25T01:54:49.043Z,29.23
2022-11-25T01:57:23.119Z,28.70
2022-11-25T01:59:57.343Z,29.58
2022-11-25T02:02:26.692Z,27.73
2022-11-25T02:04:55.259Z,28.13
2022-11-25T02:07:29.574Z,28.10
2022-11-25T02:09:59.496Z,27.13
2022-11-25T02:12:29.379Z,28.58
2022-11-25T02:15:00.528Z,29.30
2022-11-25T02:17:28.879Z,28.02
2022-11-25T02:20:03.771Z,28.48
2022-11-25T02:22:47.399Z,28.05
2022-11-25T02:25:20.778Z,27.20
2022-11-25T02:27:53.617Z,28.75
2022-11-25T02:30:22.036Z,28.35
2022-11-25T02:32:50.405Z,28.38
2022-11-25T02:35:33.764Z,26.55
2022-11-25T02:38:07.305Z,26.67
2022-11-25T02:40:41.768Z,29.20
2022-11-25T02:45:46.509Z,27.13
2022-11-25T02:48:14.872Z,27.23
2022-11-25T02:50:43.588Z,26.58
2022-11-25T02:53:12.028Z,26.67
2022-11-25T02:55:41.807Z,26.75
2022-11-25T02:58:10.231Z,27.92
2022-11-25T03:00:38.985Z,29.60
2022-11-25T03:03:07.772Z,26.35
2022-11-25T03:05:36.430Z,27.40
2022-11-25T03:08:05.182Z,27.20
2022-11-25T03:10:34.171Z,27.00
2022-11-25T03:13:04.586Z,25.98
2022-11-25T03:15:33.030Z,26.67
2022-11-25T03:18:01.513Z,27.63
2022-11-25T03:20:30.334Z,27.05
2022-11-25T03:22:58.710Z,27.10
2022-11-25T03:25:27.205Z,27.38
2022-11-25T03:27:55.510Z,25.98
2022-11-25T03:30:27.309Z,29.23
2022-11-25T03:32:55.761Z,26.88
2022-11-25T03:35:24.412Z,26.27
2022-11-25T03:37:52.759Z,24.80
2022-11-25T03:40:21.185Z,25.70
2022-11-25T03:42:49.635Z,25.23
2022-11-25T03:45:18.328Z,24.92
2022-11-25T03:47:48.010Z,24.48
2022-11-25T03:50:17.113Z,25.10
2022-11-25T03:52:45.700Z,23.85
2022-11-25T03:55:14.280Z,24.45
2022-11-25T03:57:42.818Z,25.40
2022-11-25T04:00:12.294Z,24.55
2022-11-25T04:02:40.790Z,25.13
2022-11-25T04:05:11.117Z,22.77
2022-11-25T04:07:39.649Z,24.50
2022-11-25T04:10:09.558Z,24.05
2022-11-25T04:12:48.723Z,24.83
2022-11-25T04:15:18.717Z,24.63
2022-11-25T04:17:47.248Z,24.73
2022-11-25T04:20:17.817Z,25.40
2022-11-25T04:22:46.197Z,24.40
2022-11-25T04:25:14.611Z,24.60
2022-11-25T04:27:42.936Z,25.65
2022-11-25T04:30:12.378Z,25.58
2022-11-25T04:32:40.807Z,26.85
2022-11-25T04:35:09.999Z,27.20
2022-11-25T04:37:39.859Z,25.90
2022-11-25T04:40:09.698Z,26.95
2022-11-25T04:42:39.628Z,27.08
2022-11-25T04:45:26.172Z,26.05
2022-11-25T04:47:54.558Z,25.08
2022-11-25T04:50:25.080Z,24.05
2022-11-25T04:52:54.783Z,24.75
2022-11-25T04:55:23.109Z,25.63
2022-11-25T04:57:51.457Z,24.52
2022-11-25T05:00:20.234Z,25.38
2022-11-25T05:02:48.757Z,25.58
2022-11-25T05:05:17.353Z,24.95
2022-11-25T05:07:45.899Z,24.30
2022-11-25T05:10:15.915Z,25.30
2022-11-25T05:12:44.304Z,24.52
2022-11-25T05:15:12.852Z,24.30
2022-11-25T05:17:41.560Z,25.65
2022-11-25T05:20:11.453Z,24.77
2022-11-25T05:22:39.830Z,26.90
2022-11-25T05:25:09.205Z,25.27
2022-11-25T05:27:38.877Z,24.45
2022-11-25T05:30:08.727Z,24.60
2022-11-25T05:32:37.045Z,25.23
2022-11-25T05:35:05.893Z,24.98
2022-11-25T05:37:34.220Z,25.27
2022-11-25T05:40:02.643Z,24.90
2022-11-25T05:42:31.101Z,25.67
2022-11-25T05:45:01.815Z,24.05
2022-11-25T05:47:30.251Z,23.83
2022-11-25T05:49:58.556Z,25.88
2022-11-25T05:52:26.859Z,24.80
2022-11-25T05:54:57.415Z,24.35
2022-11-25T05:57:26.285Z,23.00
2022-11-25T05:59:54.590Z,22.88
2022-11-25T06:02:24.298Z,24.73
2022-11-25T06:04:52.921Z,25.08
2022-11-25T06:07:21.248Z,24.60
2022-11-25T06:09:49.601Z,25.48
2022-11-25T06:12:17.914Z,23.42
2022-11-25T06:14:46.345Z,23.42
2022-11-25T06:17:14.685Z,23.15
2022-11-25T06:19:44.389Z,25.23
2022-11-25T06:22:12.741Z,24.88
2022-11-25T06:24:41.086Z,24.33
2022-11-25T06:27:09.426Z,24.05
2022-11-25T06:29:37.765Z,25.10
2022-11-25T06:32:06.333Z,24.92
2022-11-25T06:34:36.538Z,24.65
2022-11-25T06:37:06.405Z,27.83
2022-11-25T06:39:34.734Z,23.25
2022-11-25T06:42:03.141Z,24.73
2022-11-25T06:44:31.580Z,26.67
2022-11-25T06:46:59.922Z,29.63
2022-11-25T06:49:29.146Z,26.83
2022-11-25T06:51:57.556Z,26.05
2022-11-25T06:54:27.242Z,27.15
2022-11-25T06:56:55.610Z,26.10
2022-11-25T06:59:24.391Z,23.52
2022-11-25T07:01:52.773Z,26.00
2022-11-25T07:04:21.203Z,27.27
2022-11-25T07:06:50.516Z,25.13
2022-11-25T07:09:19.574Z,28.45
2022-11-25T07:11:50.037Z,24.08
2022-11-25T07:14:18.914Z,24.52
2022-11-25T07:16:47.448Z,25.25
2022-11-25T07:19:18.169Z,25.58
2022-11-25T07:21:47.689Z,23.60
2022-11-25T07:24:17.533Z,23.45
2022-11-25T07:26:46.449Z,30.75
2022-11-25T07:29:44.412Z,27.27
2022-11-25T07:32:10.489Z,28.58
2022-11-25T07:34:39.773Z,30.50
2022-11-25T07:37:08.159Z,26.00
2022-11-25T07:39:37.048Z,29.17
2022-11-25T07:42:05.928Z,27.30
2022-11-25T07:44:35.863Z,28.88
2022-11-25T07:47:04.207Z,30.60
2022-11-25T07:49:32.950Z,27.13
2022-11-25T07:52:02.278Z,28.05
2022-11-25T07:54:31.015Z,28.73
2022-11-25T07:56:59.364Z,29.95
2022-11-25T07:59:27.721Z,32.83
2022-11-25T08:01:57.681Z,30.58
2022-11-25T08:04:26.155Z,31.13
2022-11-25T08:06:54.710Z,29.20
2022-11-25T08:09:25.225Z,28.42
2022-11-25T08:11:54.216Z,26.35
2022-11-25T08:14:22.817Z,23.25
2022-11-25T08:16:51.180Z,25.50
2022-11-25T08:19:20.994Z,27.25
2022-11-25T08:21:49.434Z,30.20
2022-11-25T08:24:20.005Z,29.20
2022-11-25T08:26:49.064Z,24.55
2022-11-25T08:29:19.752Z,25.40
2022-11-25T08:31:48.576Z,25.70
2022-11-25T08:34:21.423Z,24.83
2022-11-25T08:36:49.929Z,25.13
2022-11-25T08:39:50.496Z,25.73
2022-11-25T08:42:08.482Z,25.30
2022-11-25T08:44:37.282Z,24.65
2022-11-25T08:47:05.769Z,25.73
2022-11-25T08:49:40.884Z,24.17
2022-11-25T08:52:11.337Z,24.55
2022-11-25T08:54:39.695Z,25.27
2022-11-25T08:57:08.209Z,35.50
2022-11-25T08:59:37.170Z,28.45
2022-11-25T09:02:06.698Z,30.40
2022-11-25T09:04:36.750Z,25.77
2022-11-25T09:07:06.192Z,25.45
2022-11-25T09:09:35.129Z,28.20
2022-11-25T09:12:04.432Z,28.95
2022-11-25T09:14:32.773Z,26.08
2022-11-25T09:17:02.115Z,28.90
2022-11-25T09:19:30.484Z,31.27
2022-11-25T09:22:00.138Z,34.20
2022-11-25T09:24:28.722Z,28.20
2022-11-25T09:26:57.245Z,26.10
2022-11-25T09:29:26.376Z,27.92
2022-11-25T09:31:55.312Z,28.27
2022-11-25T09:34:24.421Z,30.20
2022-11-25T09:36:52.854Z,26.85
2022-11-25T09:39:23.549Z,26.45
2022-11-25T09:42:22.836Z,25.50
2022-11-25T09:45:21.164Z,26.00
2022-11-25T09:48:01.688Z,23.83
2022-11-25T09:50:49.665Z,28.30
2022-11-25T09:53:31.861Z,25.80
2022-11-25T09:56:05.563Z,26.83
2022-11-25T09:58:37.116Z,25.15
2022-11-25T10:01:08.376Z,23.33
2022-11-25T10:03:41.729Z,23.33
2022-11-25T10:06:16.681Z,24.10
2022-11-25T10:08:49.079Z,24.60
2022-11-25T10:11:28.254Z,23.13
2022-11-25T10:14:02.129Z,25.02
2022-11-25T10:16:40.280Z,25.13
2022-11-25T10:19:21.218Z,30.20
2022-11-25T10:21:49.861Z,27.98
2022-11-25T10:24:21.367Z,25.90
2022-11-25T10:26:58.514Z,24.35
2022-11-25T10:29:29.150Z,30.50
2022-11-25T10:32:19.719Z,24.88
2022-11-25T10:34:53.424Z,32.45
2022-11-25T10:37:28.667Z,26.92
2022-11-25T10:39:57.063Z,27.42
2022-11-25T10:42:28.633Z,26.95
2022-11-25T10:44:56.961Z,26.50
2022-11-25T10:47:36.152Z,26.48
2022-11-25T10:50:18.603Z,29.75
2022-11-25T10:52:55.230Z,28.88
2022-11-25T10:55:26.514Z,28.55
2022-11-25T10:57:57.315Z,32.95
2022-11-25T11:00:30.662Z,30.98
2022-11-25T11:03:01.042Z,28.58
2022-11-25T11:05:31.213Z,32.50
2022-11-25T11:08:17.983Z,31.10
2022-11-25T11:10:47.018Z,34.25
2022-11-25T11:13:26.414Z,30.70
2022-11-25T11:15:55.413Z,32.05
2022-11-25T11:18:29.496Z,32.60
2022-11-25T11:21:01.640Z,31.30
2022-11-25T11:23:30.877Z,29.65
2022-11-25T11:26:02.471Z,34.15
2022-11-25T11:28:42.067Z,28.20
2022-11-25T11:31:20.595Z,34.00
2022-11-25T11:33:57.852Z,29.27
2022-11-25T11:36:42.026Z,27.95
2022-11-25T11:39:36.333Z,32.35
2022-11-25T11:42:13.709Z,34.50
2022-11-25T11:44:57.929Z,27.50
2022-11-25T11:47:34.372Z,27.05
2022-11-25T11:50:18.408Z,27.92
2022-11-25T11:52:57.816Z,28.17
2022-11-25T11:55:40.949Z,26.10
2022-11-25T11:58:20.748Z,29.55
2022-11-25T12:00:58.802Z,23.98
2022-11-25T12:03:30.569Z,22.40
2022-11-25T12:06:04.423Z,24.33
2022-11-25T12:08:47.972Z,22.90
2022-11-25T12:11:21.171Z,23.27
2022-11-25T12:14:00.809Z,22.65
2022-11-25T12:16:37.955Z,22.80
2022-11-25T12:19:16.162Z,23.60
2022-11-25T12:21:53.522Z,22.42
2022-11-25T12:24:27.116Z,21.13
2022-11-25T12:27:01.300Z,23.00
2022-11-25T12:29:36.496Z,21.70
2022-11-25T12:32:24.265Z,36.03
2022-11-25T12:34:58.016Z,31.92
2022-11-25T12:37:33.894Z,29.70
2022-11-25T12:40:08.622Z,26.48
2022-11-25T12:42:40.705Z,26.38
2022-11-25T12:45:16.750Z,27.25
2022-11-25T12:47:46.693Z,28.92
2022-11-25T12:50:18.218Z,27.02
2022-11-25T12:52:54.767Z,26.58
2022-11-25T12:55:24.567Z,24.80
2022-11-25T12:58:23.397Z,28.80
2022-11-25T13:01:40.246Z,24.67
2022-11-25T13:04:46.758Z,24.25
2022-11-25T13:07:25.891Z,22.98
2022-11-25T13:10:11.269Z,25.13
2022-11-25T13:12:48.195Z,23.73
2022-11-25T13:15:28.304Z,24.15
2022-11-25T13:18:00.571Z,27.20
2022-11-25T13:20:47.319Z,23.13
2022-11-25T13:23:31.153Z,23.38
2022-11-25T13:26:37.803Z,26.83
2022-11-25T13:29:45.729Z,23.40
2022-11-25T13:32:31.330Z,22.40
2022-11-25T13:35:36.982Z,23.25
2022-11-25T13:38:37.685Z,22.02
2022-11-25T13:41:24.711Z,20.48
2022-11-25T13:44:01.731Z,20.20
2022-11-25T13:46:38.857Z,20.50
2022-11-25T13:49:22.143Z,20.98
2022-11-25T13:51:51.705Z,19.23
2022-11-25T13:54:28.249Z,19.55
2022-11-25T13:57:14.971Z,20.15
2022-11-25T13:59:52.176Z,19.27
2022-11-25T14:02:49.660Z,23.17
2022-11-25T14:06:02.973Z,21.73
2022-11-25T14:08:39.617Z,20.02
2022-11-25T14:11:38.808Z,21.50
2022-11-25T14:14:30.417Z,30.15
2022-11-25T14:17:16.693Z,20.52
2022-11-25T14:20:04.278Z,21.45
2022-11-25T14:22:48.681Z,20.33
2022-11-25T14:25:23.249Z,21.67
2022-11-25T14:28:11.289Z,21.95
2022-11-25T14:30:53.033Z,22.67
2022-11-25T14:33:26.989Z,22.10
2022-11-25T14:36:01.564Z,20.77
2022-11-25T14:38:38.404Z,23.50
2022-11-25T14:41:12.348Z,20.67
2022-11-25T14:43:48.237Z,22.55
2022-11-25T14:46:20.548Z,22.10
2022-11-25T14:48:55.968Z,22.10
2022-11-25T14:51:26.257Z,21.20
2022-11-25T14:53:54.891Z,23.10
2022-11-25T14:56:27.487Z,23.20
2022-11-25T14:58:59.120Z,21.55
2022-11-25T15:01:29.078Z,22.98
2022-11-25T15:04:06.305Z,20.90
2022-11-25T15:06:36.881Z,21.00
2022-11-25T15:09:18.462Z,23.55
2022-11-25T15:11:47.305Z,23.00
2022-11-25T15:14:26.116Z,23.67
2022-11-25T15:16:55.961Z,22.50
2022-11-25T15:19:33.298Z,22.15
2022-11-25T15:22:22.341Z,23.90
2022-11-25T15:24:56.030Z,24.30
2022-11-25T15:27:27.001Z,22.33
2022-11-25T15:29:58.520Z,23.02
2022-11-25T15:32:28.848Z,22.15
2022-11-25T15:34:59.256Z,23.92
2022-11-25T15:37:27.996Z,21.73
2022-11-25T15:40:29.758Z,25.73
2022-11-25T15:42:58.878Z,25.40
2022-11-25T15:45:36.010Z,23.10
2022-11-25T15:48:05.369Z,27.20
2022-11-25T15:50:35.286Z,39.70
2022-11-25T15:53:03.999Z,20.90
2022-11-25T15:55:35.328Z,24.58
2022-11-25T15:58:09.009Z,25.77
2022-11-25T16:00:41.692Z,21.92
2022-11-25T16:03:21.715Z,21.70
2022-11-25T16:05:54.233Z,20.13
2022-11-25T16:08:35.023Z,22.08
2022-11-25T16:11:16.682Z,27.35
2022-11-25T16:13:46.193Z,23.38
2022-11-25T16:16:23.240Z,28.33
2022-11-25T16:19:15.006Z,24.65
2022-11-25T16:21:47.310Z,22.95
2022-11-25T16:24:32.500Z,23.15
2022-11-25T16:27:02.533Z,24.52
2022-11-25T16:29:33.564Z,25.13
2022-11-25T16:32:14.416Z,27.00
2022-11-25T16:34:43.257Z,25.30
2022-11-25T16:37:11.952Z,24.42
2022-11-25T16:39:40.638Z,24.35
2022-11-25T16:42:18.459Z,24.70
2022-11-25T16:44:49.283Z,22.92
2022-11-25T16:47:21.022Z,25.13
2022-11-25T16:49:49.520Z,25.50
2022-11-25T16:52:17.912Z,33.13
2022-11-25T16:54:47.396Z,28.02
2022-11-25T16:57:20.192Z,24.35
2022-11-25T16:59:55.895Z,25.15
2022-11-25T17:02:27.650Z,23.38
2022-11-25T17:04:58.567Z,22.65
2022-11-25T17:07:34.444Z,27.98
2022-11-25T17:10:03.551Z,22.80
2022-11-25T17:12:34.335Z,24.00
2022-11-25T17:15:04.672Z,24.13
2022-11-25T17:17:35.356Z,22.98
2022-11-25T17:20:03.972Z,22.42
2022-11-25T17:22:39.048Z,26.50
2022-11-25T17:25:08.863Z,31.67
2022-11-25T17:27:37.580Z,26.48
2022-11-25T17:30:09.064Z,26.30
2022-11-25T17:32:38.822Z,25.15
2022-11-25T17:35:17.556Z,23.52
2022-11-25T17:37:46.013Z,31.05
2022-11-25T17:40:15.037Z,22.23
2022-11-25T17:42:45.151Z,21.17
2022-11-25T17:45:15.645Z,21.42
2022-11-25T17:47:46.158Z,21.63
2022-11-25T17:50:20.174Z,21.52
2022-11-25T17:52:48.722Z,20.15
2022-11-25T17:55:19.546Z,20.42
2022-11-25T17:57:48.480Z,19.40
2022-11-25T18:00:19.660Z,21.73
2022-11-25T18:02:50.531Z,19.70
2022-11-25T18:05:21.358Z,20.45
2022-11-25T18:07:50.508Z,23.25
2022-11-25T18:10:21.107Z,19.48
2022-11-25T18:12:52.806Z,20.27
2022-11-25T18:15:23.375Z,20.52
2022-11-25T18:17:58.466Z,21.13
2022-11-25T18:20:30.007Z,20.90
2022-11-25T18:23:01.585Z,21.40
2022-11-25T18:25:32.573Z,21.65
2022-11-25T18:28:02.325Z,20.65
2022-11-25T18:30:33.376Z,20.85
2022-11-25T18:33:05.702Z,22.35
2022-11-25T18:35:36.848Z,29.63
2022-11-25T18:38:05.889Z,24.80
2022-11-25T18:40:36.227Z,24.58
2022-11-25T18:43:05.702Z,24.02
2022-11-25T18:45:37.095Z,27.85
2022-11-25T18:48:15.837Z,24.77
2022-11-25T18:50:45.307Z,22.20
2022-11-25T18:53:14.406Z,24.77
2022-11-25T18:55:45.405Z,23.13
2022-11-25T18:58:17.623Z,24.67
2022-11-25T19:00:48.475Z,23.58
2022-11-25T19:03:20.860Z,27.45
2022-11-25T19:05:50.040Z,25.25
2022-11-25T19:08:19.460Z,22.70
2022-11-25T19:10:49.504Z,25.42
2022-11-25T19:13:21.792Z,42.45
2022-11-25T19:15:50.357Z,34.95
2022-11-25T19:18:24.982Z,25.83
2022-11-25T19:20:53.946Z,23.63
2022-11-25T19:23:26.454Z,22.40
2022-11-25T19:25:56.985Z,22.67
2022-11-25T19:28:26.867Z,21.73
2022-11-25T19:31:00.374Z,22.98
2022-11-25T19:33:33.700Z,22.10
2022-11-25T19:36:02.142Z,23.65
2022-11-25T19:38:31.076Z,22.77
2022-11-25T19:41:02.581Z,23.30
2022-11-25T19:43:34.940Z,23.98
2022-11-25T19:46:03.463Z,25.02
2022-11-25T19:48:38.968Z,22.73
2022-11-25T19:51:07.470Z,22.38
2022-11-25T19:53:36.973Z,23.70
2022-11-25T19:56:05.620Z,26.63
2022-11-25T19:58:34.003Z,26.15
2022-11-25T20:01:05.794Z,24.75
2022-11-25T20:03:36.767Z,23.25
2022-11-25T20:06:06.348Z,22.90
2022-11-25T20:08:34.674Z,23.20
2022-11-25T20:11:03.011Z,22.10
2022-11-25T20:13:32.204Z,23.05
2022-11-25T20:16:04.242Z,25.95
2022-11-25T20:18:37.527Z,23.88
2022-11-25T20:21:06.949Z,24.38
2022-11-25T20:23:43.778Z,23.48
2022-11-25T20:26:17.816Z,24.42
2022-11-25T20:28:46.247Z,25.42
2022-11-25T20:31:15.881Z,25.67
2022-11-25T20:33:45.845Z,24.90
2022-11-25T20:36:19.227Z,25.05
2022-11-25T20:38:52.729Z,24.95
2022-11-25T20:41:26.064Z,22.97
2022-11-25T20:43:57.675Z,25.60
2022-11-25T20:46:29.015Z,26.13
2022-11-25T20:49:01.600Z,26.50
2022-11-25T20:51:30.654Z,27.50
2022-11-25T20:54:01.915Z,27.75
2022-11-25T20:56:31.403Z,28.65
2022-11-25T20:59:00.079Z,28.38
2022-11-25T21:01:28.561Z,27.33
2022-11-25T21:03:58.507Z,30.70
2022-11-25T21:06:29.839Z,28.95
2022-11-25T21:09:00.098Z,30.38
2022-11-25T21:11:32.835Z,30.73
2022-11-25T21:14:01.287Z,32.95
2022-11-25T21:16:29.800Z,30.13
2022-11-25T21:18:59.519Z,29.10
2022-11-25T21:21:32.771Z,27.73
2022-11-25T21:24:16.926Z,22.88
2022-11-25T21:26:45.860Z,18.83
2022-11-25T21:29:16.628Z,20.33
2022-11-25T21:31:45.091Z,20.02
2022-11-25T21:34:15.899Z,21.60
2022-11-25T21:36:46.688Z,18.00
2022-11-25T21:39:27.788Z,17.83
2022-11-25T21:41:58.916Z,17.27
2022-11-25T21:44:31.950Z,16.63
2022-11-25T21:47:00.305Z,17.48
2022-11-25T21:49:30.043Z,15.68
2022-11-25T21:51:58.376Z,15.35
2022-11-25T21:54:26.729Z,15.63
2022-11-25T21:56:55.121Z,16.65
2022-11-25T21:59:23.496Z,15.02
2022-11-25T22:01:51.861Z,15.20
2022-11-25T22:04:22.500Z,14.88
2022-11-25T22:06:52.441Z,14.40
2022-11-25T22:09:20.802Z,13.95
2022-11-25T22:11:52.959Z,13.30
2022-11-25T22:14:29.007Z,13.20
2022-11-25T22:16:57.917Z,13.02
2022-11-25T22:19:28.484Z,13.77
2022-11-25T22:21:58.252Z,14.55
2022-11-25T22:24:26.768Z,17.52
2022-11-25T22:26:58.184Z,14.43
2022-11-25T22:29:34.055Z,13.95
2022-11-25T22:32:02.816Z,14.63
2022-11-25T22:34:32.523Z,14.90
2022-11-25T22:37:02.216Z,23.38
2022-11-25T22:39:30.554Z,15.93
2022-11-25T22:42:04.389Z,14.77
2022-11-25T22:44:36.417Z,14.68
2022-11-25T22:47:05.830Z,12.07
2022-11-25T22:49:41.439Z,12.75
2022-11-25T22:52:19.986Z,12.68
2022-11-25T22:54:48.461Z,11.75
2022-11-25T22:57:16.840Z,11.15
2022-11-25T22:59:45.607Z,11.52
2022-11-25T23:02:20.603Z,11.57
2022-11-25T23:04:54.125Z,12.35
2022-11-25T23:07:25.370Z,12.40
2022-11-25T23:09:54.109Z,11.60
2022-11-25T23:12:22.455Z,11.63
2022-11-25T23:14:50.758Z,12.18
2022-11-25T23:17:23.164Z,12.23
2022-11-25T23:19:52.440Z,12.20
2022-11-25T23:22:21.154Z,11.25
2022-11-25T23:24:50.924Z,12.57
2022-11-25T23:27:19.359Z,12.13
2022-11-25T23:29:47.701Z,12.10
2022-11-25T23:32:20.057Z,12.15
2022-11-25T23:34:51.517Z,13.63
2022-11-25T23:37:19.951Z,14.18
2022-11-25T23:39:54.221Z,14.00
2022-11-25T23:42:22.613Z,14.88
2022-11-25T23:44:51.098Z,14.95
2022-11-25T23:47:22.409Z,15.00
2022-11-25T23:49:53.027Z,16.60
2022-11-25T23:52:24.770Z,15.88
2022-11-25T23:54:55.046Z,17.58
2022-11-25T23:57:26.873Z,15.77
2022-11-25T23:59:55.182Z,17.75
